sensor_id;sensor_type;location;lat;lon;timestamp;pressure;altitude;pressure_sealevel;temperature;humidity
72548;BME280;60570;50.848;6.776;2024-02-04T00:00:20;101393.63;;;11.72;73.16
72548;BME280;60570;50.848;6.776;2024-02-04T00:01:22;101392.50;;;11.73;73.05
72548;BME280;60570;50.848;6.776;2024-02-04T00:02:22;101397.72;;;11.75;73.16
72548;BME280;60570;50.848;6.776;2024-02-04T00:03:25;101385.09;;;11.68;73.03
72548;BME280;60570;50.848;6.776;2024-02-04T00:04:26;101391.81;;;11.67;73.26
72548;BME280;60570;50.848;6.776;2024-02-04T00:05:27;101388.53;;;11.65;73.31
72548;BME280;60570;50.848;6.776;2024-02-04T00:06:29;101387.03;;;11.68;73.19
72548;BME280;60570;50.848;6.776;2024-02-04T00:07:30;101381.28;;;11.64;73.16
72548;BME280;60570;50.848;6.776;2024-02-04T00:08:35;101387.66;;;11.65;73.65
72548;BME280;60570;50.848;6.776;2024-02-04T00:09:37;101384.59;;;11.66;73.32
72548;BME280;60570;50.848;6.776;2024-02-04T00:10:39;101385.91;;;11.69;73.44
72548;BME280;60570;50.848;6.776;2024-02-04T00:11:40;101381.47;;;11.68;73.89
72548;BME280;60570;50.848;6.776;2024-02-04T00:12:41;101380.34;;;11.69;74.16
72548;BME280;60570;50.848;6.776;2024-02-04T00:13:42;101386.41;;;11.71;73.56
72548;BME280;60570;50.848;6.776;2024-02-04T00:14:43;101381.97;;;11.70;73.52
72548;BME280;60570;50.848;6.776;2024-02-04T00:15:44;101379.19;;;11.70;73.74
72548;BME280;60570;50.848;6.776;2024-02-04T00:16:45;101384.75;;;11.70;73.32
72548;BME280;60570;50.848;6.776;2024-02-04T00:17:46;101384.25;;;11.68;73.52
72548;BME280;60570;50.848;6.776;2024-02-04T00:18:47;101377.56;;;11.69;73.42
72548;BME280;60570;50.848;6.776;2024-02-04T00:19:48;101387.53;;;11.70;73.54
72548;BME280;60570;50.848;6.776;2024-02-04T00:20:50;101381.19;;;11.69;73.12
72548;BME280;60570;50.848;6.776;2024-02-04T00:21:51;101383.97;;;11.69;73.42
72548;BME280;60570;50.848;6.776;2024-02-04T00:22:52;101374.28;;;11.67;73.53
72548;BME280;60570;50.848;6.776;2024-02-04T00:23:53;101377.06;;;11.67;73.92
72548;BME280;60570;50.848;6.776;2024-02-04T00:24:54;101369.56;;;11.67;73.54
72548;BME280;60570;50.848;6.776;2024-02-04T00:26:03;101362.63;;;11.65;73.45
72548;BME280;60570;50.848;6.776;2024-02-04T00:27:04;101357.91;;;11.65;73.19
72548;BME280;60570;50.848;6.776;2024-02-04T00:28:05;101361.78;;;11.64;73.54
72548;BME280;60570;50.848;6.776;2024-02-04T00:29:06;101368.72;;;11.67;73.49
72548;BME280;60570;50.848;6.776;2024-02-04T00:30:08;101368.72;;;11.67;73.59
72548;BME280;60570;50.848;6.776;2024-02-04T00:31:09;101363.97;;;11.67;73.72
72548;BME280;60570;50.848;6.776;2024-02-04T00:32:11;101366.44;;;11.69;73.44
72548;BME280;60570;50.848;6.776;2024-02-04T00:33:11;101368.41;;;11.68;73.29
72548;BME280;60570;50.848;6.776;2024-02-04T00:34:13;101366.94;;;11.71;73.74
72548;BME280;60570;50.848;6.776;2024-02-04T00:35:14;101369.72;;;11.71;73.73
72548;BME280;60570;50.848;6.776;2024-02-04T00:36:15;101367.78;;;11.72;73.65
72548;BME280;60570;50.848;6.776;2024-02-04T00:37:18;101366.44;;;11.69;73.70
72548;BME280;60570;50.848;6.776;2024-02-04T00:38:19;101374.28;;;11.67;73.58
72548;BME280;60570;50.848;6.776;2024-02-04T00:39:20;101367.28;;;11.69;73.82
72548;BME280;60570;50.848;6.776;2024-02-04T00:40:22;101364.78;;;11.68;73.75
72548;BME280;60570;50.848;6.776;2024-02-04T00:41:24;101367.28;;;11.69;73.57
72548;BME280;60570;50.848;6.776;2024-02-04T00:42:26;101371.69;;;11.70;73.53
72548;BME280;60570;50.848;6.776;2024-02-04T00:43:27;101373.47;;;11.66;73.34
72548;BME280;60570;50.848;6.776;2024-02-04T00:44:28;101367.91;;;11.66;73.53
72548;BME280;60570;50.848;6.776;2024-02-04T00:45:29;101361.19;;;11.67;73.78
72548;BME280;60570;50.848;6.776;2024-02-04T00:46:30;101360.03;;;11.68;73.90
72548;BME280;60570;50.848;6.776;2024-02-04T00:47:31;101361.38;;;11.71;73.78
72548;BME280;60570;50.848;6.776;2024-02-04T00:48:32;101367.78;;;11.72;73.75
72548;BME280;60570;50.848;6.776;2024-02-04T00:49:34;101362.81;;;11.68;73.69
72548;BME280;60570;50.848;6.776;2024-02-04T00:50:34;101360.03;;;11.68;73.63
72548;BME280;60570;50.848;6.776;2024-02-04T00:51:36;101363.97;;;11.67;73.86
72548;BME280;60570;50.848;6.776;2024-02-04T00:52:38;101361.19;;;11.67;73.85
72548;BME280;60570;50.848;6.776;2024-02-04T00:53:40;101365.63;;;11.68;73.92
72548;BME280;60570;50.848;6.776;2024-02-04T00:54:41;101360.88;;;11.69;73.27
72548;BME280;60570;50.848;6.776;2024-02-04T00:55:43;101363.31;;;11.70;73.64
72548;BME280;60570;50.848;6.776;2024-02-04T00:56:45;101363.66;;;11.69;73.48
72548;BME280;60570;50.848;6.776;2024-02-04T00:57:46;101362.81;;;11.68;73.55
72548;BME280;60570;50.848;6.776;2024-02-04T00:58:47;101364.97;;;11.72;73.49
72548;BME280;60570;50.848;6.776;2024-02-04T00:59:49;101356.94;;;11.70;73.68
72548;BME280;60570;50.848;6.776;2024-02-04T01:00:50;101361.69;;;11.69;73.91
72548;BME280;60570;50.848;6.776;2024-02-04T01:01:52;101364.78;;;11.68;74.09
72548;BME280;60570;50.848;6.776;2024-02-04T01:02:53;101358.72;;;11.66;73.93
72548;BME280;60570;50.848;6.776;2024-02-04T01:03:55;101362.00;;;11.68;73.80
72548;BME280;60570;50.848;6.776;2024-02-04T01:04:55;101364.78;;;11.68;73.49
72548;BME280;60570;50.848;6.776;2024-02-04T01:05:57;101358.50;;;11.62;73.45
72548;BME280;60570;50.848;6.776;2024-02-04T01:06:58;101360.97;;;11.64;73.88
72548;BME280;60570;50.848;6.776;2024-02-04T01:07:59;101354.47;;;11.68;73.68
72548;BME280;60570;50.848;6.776;2024-02-04T01:09:01;101361.19;;;11.67;73.72
72548;BME280;60570;50.848;6.776;2024-02-04T01:10:03;101363.97;;;11.67;73.69
72548;BME280;60570;50.848;6.776;2024-02-04T01:11:04;101359.53;;;11.66;73.66
72548;BME280;60570;50.848;6.776;2024-02-04T01:12:07;101360.03;;;11.68;74.07
72548;BME280;60570;50.848;6.776;2024-02-04T01:13:08;101356.44;;;11.68;74.11
72548;BME280;60570;50.848;6.776;2024-02-04T01:14:10;101361.19;;;11.67;73.69
72548;BME280;60570;50.848;6.776;2024-02-04T01:15:11;101359.22;;;11.68;73.67
72548;BME280;60570;50.848;6.776;2024-02-04T01:16:12;101360.03;;;11.68;73.93
72548;BME280;60570;50.848;6.776;2024-02-04T01:17:13;101366.13;;;11.70;74.34
72548;BME280;60570;50.848;6.776;2024-02-04T01:18:15;101364.16;;;11.71;73.95
72548;BME280;60570;50.848;6.776;2024-02-04T01:19:15;101358.59;;;11.71;74.07
72548;BME280;60570;50.848;6.776;2024-02-04T01:20:17;101354.16;;;11.70;73.83
72548;BME280;60570;50.848;6.776;2024-02-04T01:21:18;101355.31;;;11.69;73.98
72548;BME280;60570;50.848;6.776;2024-02-04T01:22:20;101355.31;;;11.69;74.05
72548;BME280;60570;50.848;6.776;2024-02-04T01:23:25;101357.59;;;11.67;73.94
72548;BME280;60570;50.848;6.776;2024-02-04T01:24:27;101358.59;;;11.71;73.98
72548;BME280;60570;50.848;6.776;2024-02-04T01:25:28;101355.31;;;11.69;74.01
72548;BME280;60570;50.848;6.776;2024-02-04T01:26:29;101365.78;;;11.72;74.29
72548;BME280;60570;50.848;6.776;2024-02-04T01:27:31;101362.50;;;11.70;74.18
72548;BME280;60570;50.848;6.776;2024-02-04T01:28:33;101366.94;;;11.71;74.10
72548;BME280;60570;50.848;6.776;2024-02-04T01:29:34;101369.72;;;11.71;73.85
72548;BME280;60570;50.848;6.776;2024-02-04T01:30:35;101370.22;;;11.73;74.03
72548;BME280;60570;50.848;6.776;2024-02-04T01:31:37;101365.13;;;11.66;74.20
72548;BME280;60570;50.848;6.776;2024-02-04T01:32:39;101360.38;;;11.67;74.04
72548;BME280;60570;50.848;6.776;2024-02-04T01:33:40;101362.81;;;11.68;74.52
72548;BME280;60570;50.848;6.776;2024-02-04T01:34:41;101366.13;;;11.70;74.04
72548;BME280;60570;50.848;6.776;2024-02-04T01:35:42;101361.38;;;11.71;74.23
72548;BME280;60570;50.848;6.776;2024-02-04T01:36:44;101358.91;;;11.69;74.19
72548;BME280;60570;50.848;6.776;2024-02-04T01:37:44;101355.31;;;11.69;74.36
72548;BME280;60570;50.848;6.776;2024-02-04T01:38:48;101356.13;;;11.69;74.26
72548;BME280;60570;50.848;6.776;2024-02-04T01:39:49;101362.50;;;11.70;74.21
72548;BME280;60570;50.848;6.776;2024-02-04T01:40:51;101360.22;;;11.72;74.04
72548;BME280;60570;50.848;6.776;2024-02-04T01:41:53;101360.22;;;11.72;73.94
72548;BME280;60570;50.848;6.776;2024-02-04T01:42:56;101358.59;;;11.71;74.53
72548;BME280;60570;50.848;6.776;2024-02-04T01:43:56;101358.09;;;11.69;74.12
72548;BME280;60570;50.848;6.776;2024-02-04T01:44:58;101362.31;;;11.66;73.98
72548;BME280;60570;50.848;6.776;2024-02-04T01:45:58;101365.28;;;11.70;74.21
72548;BME280;60570;50.848;6.776;2024-02-04T01:47:00;101364.47;;;11.69;73.92
72548;BME280;60570;50.848;6.776;2024-02-04T01:48:01;101361.88;;;11.73;73.88
72548;BME280;60570;50.848;6.776;2024-02-04T01:49:03;101367.44;;;11.73;73.46
72548;BME280;60570;50.848;6.776;2024-02-04T01:50:04;101360.22;;;11.72;73.77
72548;BME280;60570;50.848;6.776;2024-02-04T01:51:07;101352.19;;;11.70;73.49
72548;BME280;60570;50.848;6.776;2024-02-04T01:52:08;101354.97;;;11.70;73.63
72548;BME280;60570;50.848;6.776;2024-02-04T01:53:11;101357.44;;;11.72;73.45
72548;BME280;60570;50.848;6.776;2024-02-04T01:54:12;101360.22;;;11.72;73.75
72548;BME280;60570;50.848;6.776;2024-02-04T01:55:13;101354.31;;;11.73;73.90
72548;BME280;60570;50.848;6.776;2024-02-04T01:56:14;101353.03;;;11.71;73.85
72548;BME280;60570;50.848;6.776;2024-02-04T01:57:16;101357.25;;;11.68;73.89
72548;BME280;60570;50.848;6.776;2024-02-04T01:58:18;101354.47;;;11.68;74.10
72548;BME280;60570;50.848;6.776;2024-02-04T01:59:21;101346.56;;;11.62;73.82
72548;BME280;60570;50.848;6.776;2024-02-04T02:00:28;101349.25;;;11.67;74.09
72548;BME280;60570;50.848;6.776;2024-02-04T02:01:31;101343.16;;;11.65;73.96
72548;BME280;60570;50.848;6.776;2024-02-04T02:02:32;101347.06;;;11.64;73.82
72548;BME280;60570;50.848;6.776;2024-02-04T02:03:35;101347.06;;;11.64;73.80
72548;BME280;60570;50.848;6.776;2024-02-04T02:04:36;101344.59;;;11.62;73.92
72548;BME280;60570;50.848;6.776;2024-02-04T02:05:40;101346.56;;;11.62;73.61
72548;BME280;60570;50.848;6.776;2024-02-04T02:06:41;101355.94;;;11.66;73.61
72548;BME280;60570;50.848;6.776;2024-02-04T02:07:44;101345.94;;;11.65;73.25
72548;BME280;60570;50.848;6.776;2024-02-04T02:08:46;101353.97;;;11.66;73.73
72548;BME280;60570;50.848;6.776;2024-02-04T02:09:49;101350.88;;;11.68;73.65
72548;BME280;60570;50.848;6.776;2024-02-04T02:10:51;101345.78;;;11.70;74.29
72548;BME280;60570;50.848;6.776;2024-02-04T02:11:59;101347.28;;;11.67;74.31
72548;BME280;60570;50.848;6.776;2024-02-04T02:13:07;101345.78;;;11.70;74.74
72548;BME280;60570;50.848;6.776;2024-02-04T02:14:14;101345.00;;;11.69;75.46
72548;BME280;60570;50.848;6.776;2024-02-04T02:15:21;101346.47;;;11.67;75.19
72548;BME280;60570;50.848;6.776;2024-02-04T02:16:23;101336.66;;;11.69;74.93
72548;BME280;60570;50.848;6.776;2024-02-04T02:17:30;101340.56;;;11.68;74.65
72548;BME280;60570;50.848;6.776;2024-02-04T02:18:38;101345.31;;;11.68;74.39
72548;BME280;60570;50.848;6.776;2024-02-04T02:19:47;101337.16;;;11.72;74.31
72548;BME280;60570;50.848;6.776;2024-02-04T02:21:01;101329.44;;;11.68;74.89
72548;BME280;60570;50.848;6.776;2024-02-04T02:22:12;101332.72;;;11.70;74.57
72548;BME280;60570;50.848;6.776;2024-02-04T02:23:21;101337.91;;;11.63;74.38
72548;BME280;60570;50.848;6.776;2024-02-04T02:24:33;101334.16;;;11.68;74.20
72548;BME280;60570;50.848;6.776;2024-02-04T02:25:36;101333.97;;;11.64;74.33
72548;BME280;60570;50.848;6.776;2024-02-04T02:26:38;101340.06;;;11.66;75.02
72548;BME280;60570;50.848;6.776;2024-02-04T02:27:46;101335.13;;;11.63;74.79
72548;BME280;60570;50.848;6.776;2024-02-04T02:28:48;101340.34;;;11.65;74.75
72548;BME280;60570;50.848;6.776;2024-02-04T02:29:49;101334.50;;;11.66;74.63
72548;BME280;60570;50.848;6.776;2024-02-04T02:30:51;101336.16;;;11.67;74.34
72548;BME280;60570;50.848;6.776;2024-02-04T02:31:51;101336.16;;;11.67;74.52
72548;BME280;60570;50.848;6.776;2024-02-04T02:32:53;101345.78;;;11.70;74.12
72548;BME280;60570;50.848;6.776;2024-02-04T02:33:54;101340.56;;;11.68;74.08
72548;BME280;60570;50.848;6.776;2024-02-04T02:34:55;101341.22;;;11.65;73.76
72548;BME280;60570;50.848;6.776;2024-02-04T02:35:57;101339.03;;;11.62;74.14
72548;BME280;60570;50.848;6.776;2024-02-04T02:37:08;101332.53;;;11.67;74.15
72548;BME280;60570;50.848;6.776;2024-02-04T02:38:20;101332.53;;;11.67;74.25
72548;BME280;60570;50.848;6.776;2024-02-04T02:39:29;101335.31;;;11.67;74.80
72548;BME280;60570;50.848;6.776;2024-02-04T02:40:38;101331.38;;;11.68;74.38
72548;BME280;60570;50.848;6.776;2024-02-04T02:41:42;101334.16;;;11.68;74.76
72548;BME280;60570;50.848;6.776;2024-02-04T02:42:46;101336.16;;;11.67;74.69
72548;BME280;60570;50.848;6.776;2024-02-04T02:43:49;101341.06;;;11.70;74.20
72548;BME280;60570;50.848;6.776;2024-02-04T02:44:53;101337.16;;;11.72;73.98
72548;BME280;60570;50.848;6.776;2024-02-04T02:45:54;101332.53;;;11.67;73.73
72548;BME280;60570;50.848;6.776;2024-02-04T02:46:57;101340.22;;;11.70;73.95
72548;BME280;60570;50.848;6.776;2024-02-04T02:47:59;101331.09;;;11.69;73.69
72548;BME280;60570;50.848;6.776;2024-02-04T02:49:01;101330.75;;;11.71;73.56
72548;BME280;60570;50.848;6.776;2024-02-04T02:50:05;101335.16;;;11.72;74.01
72548;BME280;60570;50.848;6.776;2024-02-04T02:51:07;101333.53;;;11.71;74.45
72548;BME280;60570;50.848;6.776;2024-02-04T02:52:07;101327.16;;;11.70;74.23
72548;BME280;60570;50.848;6.776;2024-02-04T02:53:09;101329.22;;;11.65;73.97
72548;BME280;60570;50.848;6.776;2024-02-04T02:54:10;101329.75;;;11.67;74.52
72548;BME280;60570;50.848;6.776;2024-02-04T02:55:13;101328.31;;;11.69;74.09
72548;BME280;60570;50.848;6.776;2024-02-04T02:56:14;101323.69;;;11.73;74.44
72548;BME280;60570;50.848;6.776;2024-02-04T02:57:16;101326.31;;;11.70;74.56
72548;BME280;60570;50.848;6.776;2024-02-04T02:58:16;101334.66;;;11.70;74.87
72548;BME280;60570;50.848;6.776;2024-02-04T02:59:18;101329.44;;;11.68;74.91
72548;BME280;60570;50.848;6.776;2024-02-04T03:00:19;101340.56;;;11.68;74.54
72548;BME280;60570;50.848;6.776;2024-02-04T03:01:21;101332.22;;;11.68;74.33
72548;BME280;60570;50.848;6.776;2024-02-04T03:02:21;101331.09;;;11.69;74.43
72548;BME280;60570;50.848;6.776;2024-02-04T03:03:23;101332.53;;;11.67;74.64
72548;BME280;60570;50.848;6.776;2024-02-04T03:04:24;101328.94;;;11.66;74.65
72548;BME280;60570;50.848;6.776;2024-02-04T03:05:25;101342.22;;;11.69;75.15
72548;BME280;60570;50.848;6.776;2024-02-04T03:06:26;101330.59;;;11.67;74.66
72548;BME280;60570;50.848;6.776;2024-02-04T03:07:27;101335.81;;;11.69;74.54
72548;BME280;60570;50.848;6.776;2024-02-04T03:08:29;101335.50;;;11.70;74.80
72548;BME280;60570;50.848;6.776;2024-02-04T03:09:29;101334.03;;;11.73;74.62
72548;BME280;60570;50.848;6.776;2024-02-04T03:10:32;101333.53;;;11.71;75.04
72548;BME280;60570;50.848;6.776;2024-02-04T03:11:33;101332.72;;;11.70;74.62
72548;BME280;60570;50.848;6.776;2024-02-04T03:12:36;101330.75;;;11.71;74.92
72548;BME280;60570;50.848;6.776;2024-02-04T03:13:38;101333.38;;;11.67;75.05
72548;BME280;60570;50.848;6.776;2024-02-04T03:14:39;101331.19;;;11.64;75.23
72548;BME280;60570;50.848;6.776;2024-02-04T03:15:40;101327.56;;;11.64;74.64
72548;BME280;60570;50.848;6.776;2024-02-04T03:16:43;101319.47;;;11.67;74.63
72548;BME280;60570;50.848;6.776;2024-02-04T03:17:44;101329.09;;;11.70;74.51
72548;BME280;60570;50.848;6.776;2024-02-04T03:18:46;101330.59;;;11.67;74.36
72548;BME280;60570;50.848;6.776;2024-02-04T03:19:47;101334.50;;;11.66;74.86
72548;BME280;60570;50.848;6.776;2024-02-04T03:20:49;101333.38;;;11.67;75.16
72548;BME280;60570;50.848;6.776;2024-02-04T03:21:50;101332.22;;;11.68;75.06
72548;BME280;60570;50.848;6.776;2024-02-04T03:22:51;101333.53;;;11.71;75.08
72548;BME280;60570;50.848;6.776;2024-02-04T03:23:52;101329.94;;;11.70;74.99
72548;BME280;60570;50.848;6.776;2024-02-04T03:24:54;101329.59;;;11.72;74.60
72548;BME280;60570;50.848;6.776;2024-02-04T03:25:56;101337.44;;;11.70;74.55
72548;BME280;60570;50.848;6.776;2024-02-04T03:26:57;101328.31;;;11.69;74.43
72548;BME280;60570;50.848;6.776;2024-02-04T03:27:58;101330.88;;;11.66;74.52
72548;BME280;60570;50.848;6.776;2024-02-04T03:28:59;101335.81;;;11.69;75.15
72548;BME280;60570;50.848;6.776;2024-02-04T03:30:00;101331.25;;;11.73;74.96
72548;BME280;60570;50.848;6.776;2024-02-04T03:31:02;101334.66;;;11.70;74.82
72548;BME280;60570;50.848;6.776;2024-02-04T03:32:04;101329.59;;;11.72;74.51
72548;BME280;60570;50.848;6.776;2024-02-04T03:33:05;101332.38;;;11.72;74.71
72548;BME280;60570;50.848;6.776;2024-02-04T03:34:06;101333.22;;;11.73;74.73
72548;BME280;60570;50.848;6.776;2024-02-04T03:35:07;101330.94;;;11.75;74.52
72548;BME280;60570;50.848;6.776;2024-02-04T03:36:09;101336.50;;;11.75;74.26
72548;BME280;60570;50.848;6.776;2024-02-04T03:37:10;101322.91;;;11.73;74.46
72548;BME280;60570;50.848;6.776;2024-02-04T03:38:12;101333.38;;;11.76;74.52
72548;BME280;60570;50.848;6.776;2024-02-04T03:39:12;101327.66;;;11.73;74.21
72548;BME280;60570;50.848;6.776;2024-02-04T03:40:13;101333.03;;;11.78;74.20
72548;BME280;60570;50.848;6.776;2024-02-04T03:41:16;101331.75;;;11.75;73.88
72548;BME280;60570;50.848;6.776;2024-02-04T03:42:17;101338.13;;;11.76;74.15
72548;BME280;60570;50.848;6.776;2024-02-04T03:43:20;101341.41;;;11.78;73.78
72548;BME280;60570;50.848;6.776;2024-02-04T03:44:21;101331.41;;;11.77;73.62
72548;BME280;60570;50.848;6.776;2024-02-04T03:45:23;101333.25;;;11.81;73.57
72548;BME280;60570;50.848;6.776;2024-02-04T03:46:23;101330.75;;;11.80;73.76
72548;BME280;60570;50.848;6.776;2024-02-04T03:47:24;101312.25;;;11.75;73.95
72548;BME280;60570;50.848;6.776;2024-02-04T03:48:26;101326.69;;;11.77;73.98
72548;BME280;60570;50.848;6.776;2024-02-04T03:49:27;101327.81;;;11.76;73.96
72548;BME280;60570;50.848;6.776;2024-02-04T03:50:29;101325.53;;;11.78;73.88
72548;BME280;60570;50.848;6.776;2024-02-04T03:51:29;101321.13;;;11.77;74.41
72548;BME280;60570;50.848;6.776;2024-02-04T03:52:31;101330.09;;;11.74;74.30
72548;BME280;60570;50.848;6.776;2024-02-04T03:53:32;101328.47;;;11.73;74.31
72548;BME280;60570;50.848;6.776;2024-02-04T03:54:34;101325.34;;;11.75;74.52
72548;BME280;60570;50.848;6.776;2024-02-04T03:55:35;101319.78;;;11.75;74.48
72548;BME280;60570;50.848;6.776;2024-02-04T03:56:38;101322.91;;;11.73;74.39
72548;BME280;60570;50.848;6.776;2024-02-04T03:57:38;101320.13;;;11.73;74.52
72548;BME280;60570;50.848;6.776;2024-02-04T03:58:40;101320.13;;;11.73;74.46
72548;BME280;60570;50.848;6.776;2024-02-04T03:59:44;101323.69;;;11.73;74.67
72548;BME280;60570;50.848;6.776;2024-02-04T04:00:46;101325.69;;;11.73;74.70
72548;BME280;60570;50.848;6.776;2024-02-04T04:01:47;101318.13;;;11.73;74.82
72548;BME280;60570;50.848;6.776;2024-02-04T04:02:49;101316.50;;;11.73;74.67
72548;BME280;60570;50.848;6.776;2024-02-04T04:03:50;101309.47;;;11.75;74.68
72548;BME280;60570;50.848;6.776;2024-02-04T04:04:51;101305.38;;;11.73;74.84
72548;BME280;60570;50.848;6.776;2024-02-04T04:05:53;101307.00;;;11.73;74.73
72548;BME280;60570;50.848;6.776;2024-02-04T04:06:53;101302.59;;;11.73;74.64
72548;BME280;60570;50.848;6.776;2024-02-04T04:07:54;101298.31;;;11.66;74.71
72548;BME280;60570;50.848;6.776;2024-02-04T04:08:56;101304.19;;;11.65;74.65
72548;BME280;60570;50.848;6.776;2024-02-04T04:09:59;101305.63;;;11.62;74.78
72548;BME280;60570;50.848;6.776;2024-02-04T04:11:01;101302.34;;;11.60;74.77
72548;BME280;60570;50.848;6.776;2024-02-04T04:12:03;101304.00;;;11.61;74.85
72548;BME280;60570;50.848;6.776;2024-02-04T04:13:04;101296.16;;;11.63;74.60
72548;BME280;60570;50.848;6.776;2024-02-04T04:14:06;101300.56;;;11.64;74.77
72548;BME280;60570;50.848;6.776;2024-02-04T04:15:07;101317.59;;;11.63;75.03
72548;BME280;60570;50.848;6.776;2024-02-04T04:16:09;101309.25;;;11.63;74.88
72548;BME280;60570;50.848;6.776;2024-02-04T04:17:09;101319.47;;;11.67;75.27
72548;BME280;60570;50.848;6.776;2024-02-04T04:18:11;101319.13;;;11.69;75.03
72548;BME280;60570;50.848;6.776;2024-02-04T04:19:13;101309.75;;;11.65;74.85
72548;BME280;60570;50.848;6.776;2024-02-04T04:20:15;101310.06;;;11.63;74.37
72548;BME280;60570;50.848;6.776;2024-02-04T04:21:15;101317.78;;;11.66;74.83
72548;BME280;60570;50.848;6.776;2024-02-04T04:22:17;101316.16;;;11.65;74.67
72548;BME280;60570;50.848;6.776;2024-02-04T04:23:18;101316.00;;;11.70;74.38
72548;BME280;60570;50.848;6.776;2024-02-04T04:24:19;101310.44;;;11.70;74.04
72548;BME280;60570;50.848;6.776;2024-02-04T04:25:22;101314.69;;;11.68;74.24
72548;BME280;60570;50.848;6.776;2024-02-04T04:26:23;101310.78;;;11.69;74.36
72548;BME280;60570;50.848;6.776;2024-02-04T04:27:26;101310.13;;;11.72;74.40
72548;BME280;60570;50.848;6.776;2024-02-04T04:28:27;101313.22;;;11.70;74.76
72548;BME280;60570;50.848;6.776;2024-02-04T04:29:28;101313.72;;;11.73;74.89
72548;BME280;60570;50.848;6.776;2024-02-04T04:30:29;101317.34;;;11.73;74.88
72548;BME280;60570;50.848;6.776;2024-02-04T04:31:30;101313.22;;;11.70;74.57
72548;BME280;60570;50.848;6.776;2024-02-04T04:32:32;101313.72;;;11.73;74.33
72548;BME280;60570;50.848;6.776;2024-02-04T04:33:32;101317.00;;;11.75;74.32
72548;BME280;60570;50.848;6.776;2024-02-04T04:34:33;101323.41;;;11.75;74.52
72548;BME280;60570;50.848;6.776;2024-02-04T04:35:35;101320.91;;;11.73;74.48
72548;BME280;60570;50.848;6.776;2024-02-04T04:36:35;101318.78;;;11.70;74.93
72548;BME280;60570;50.848;6.776;2024-02-04T04:37:37;101318.28;;;11.68;74.61
72548;BME280;60570;50.848;6.776;2024-02-04T04:38:38;101317.66;;;11.72;75.00
72548;BME280;60570;50.848;6.776;2024-02-04T04:39:39;101324.53;;;11.74;74.72
72548;BME280;60570;50.848;6.776;2024-02-04T04:40:40;101326.97;;;11.76;75.08
72548;BME280;60570;50.848;6.776;2024-02-04T04:41:43;101324.84;;;11.73;74.71
72548;BME280;60570;50.848;6.776;2024-02-04T04:42:46;101327.66;;;11.73;74.71
72548;BME280;60570;50.848;6.776;2024-02-04T04:43:47;101332.38;;;11.72;74.76
72548;BME280;60570;50.848;6.776;2024-02-04T04:44:48;101332.72;;;11.70;74.82
72548;BME280;60570;50.848;6.776;2024-02-04T04:45:50;101335.16;;;11.72;74.55
72548;BME280;60570;50.848;6.776;2024-02-04T04:46:50;101334.66;;;11.70;74.51
72548;BME280;60570;50.848;6.776;2024-02-04T04:47:52;101326.03;;;11.72;74.45
72548;BME280;60570;50.848;6.776;2024-02-04T04:48:53;101329.28;;;11.73;74.29
72548;BME280;60570;50.848;6.776;2024-02-04T04:49:58;101342.06;;;11.75;74.04
72548;BME280;60570;50.848;6.776;2024-02-04T04:50:59;101341.41;;;11.78;74.07
72548;BME280;60570;50.848;6.776;2024-02-04T04:52:00;101340.59;;;11.77;74.01
72548;BME280;60570;50.848;6.776;2024-02-04T04:53:01;101341.41;;;11.78;74.28
72548;BME280;60570;50.848;6.776;2024-02-04T04:54:03;101356.97;;;11.79;74.73
72548;BME280;60570;50.848;6.776;2024-02-04T04:55:07;101360.09;;;11.77;74.69
72548;BME280;60570;50.848;6.776;2024-02-04T04:56:09;101357.31;;;11.77;75.17
72548;BME280;60570;50.848;6.776;2024-02-04T04:57:10;101351.53;;;11.73;75.35
72548;BME280;60570;50.848;6.776;2024-02-04T04:58:13;101361.03;;;11.73;75.29
72548;BME280;60570;50.848;6.776;2024-02-04T04:59:14;101359.88;;;11.73;74.91
72548;BME280;60570;50.848;6.776;2024-02-04T05:00:17;101349.91;;;11.73;74.74
72548;BME280;60570;50.848;6.776;2024-02-04T05:01:17;101335.16;;;11.72;74.63
72548;BME280;60570;50.848;6.776;2024-02-04T05:02:18;101332.72;;;11.70;75.18
72548;BME280;60570;50.848;6.776;2024-02-04T05:03:20;101326.81;;;11.72;74.91
72548;BME280;60570;50.848;6.776;2024-02-04T05:04:21;101334.66;;;11.70;75.20
72548;BME280;60570;50.848;6.776;2024-02-04T05:05:25;101340.56;;;11.68;74.77
72548;BME280;60570;50.848;6.776;2024-02-04T05:06:26;101335.00;;;11.68;74.92
72548;BME280;60570;50.848;6.776;2024-02-04T05:07:28;101334.50;;;11.66;74.90
72548;BME280;60570;50.848;6.776;2024-02-04T05:08:28;101336.66;;;11.69;74.70
72548;BME280;60570;50.848;6.776;2024-02-04T05:09:30;101329.59;;;11.72;75.50
72548;BME280;60570;50.848;6.776;2024-02-04T05:10:31;101335.50;;;11.70;75.30
72548;BME280;60570;50.848;6.776;2024-02-04T05:11:32;101338.28;;;11.70;74.90
72548;BME280;60570;50.848;6.776;2024-02-04T05:12:34;101333.88;;;11.69;74.59
72548;BME280;60570;50.848;6.776;2024-02-04T05:13:39;101327.97;;;11.71;74.68
72548;BME280;60570;50.848;6.776;2024-02-04T05:14:40;101335.16;;;11.72;74.26
72548;BME280;60570;50.848;6.776;2024-02-04T05:15:42;101330.44;;;11.73;74.96
72548;BME280;60570;50.848;6.776;2024-02-04T05:16:43;101324.84;;;11.73;74.74
72548;BME280;60570;50.848;6.776;2024-02-04T05:17:45;101319.63;;;11.71;74.52
72548;BME280;60570;50.848;6.776;2024-02-04T05:18:46;101321.56;;;11.70;74.45
72548;BME280;60570;50.848;6.776;2024-02-04T05:19:47;101317.97;;;11.70;74.58
72548;BME280;60570;50.848;6.776;2024-02-04T05:20:48;101317.97;;;11.70;74.62
72548;BME280;60570;50.848;6.776;2024-02-04T05:21:50;101317.97;;;11.70;74.25
72548;BME280;60570;50.848;6.776;2024-02-04T05:22:50;101320.75;;;11.70;74.45
72548;BME280;60570;50.848;6.776;2024-02-04T05:23:54;101328.47;;;11.73;74.15